createdAt,value
2022-12-12T00:02:27.578Z,99418.23
2022-12-12T00:05:21.064Z,99421.62
2022-12-12T00:08:13.842Z,99420.11
2022-12-12T00:11:06.742Z,99422.23
2022-12-12T00:14:00.365Z,99417.48
2022-12-12T00:16:54.020Z,99417.52
2022-12-12T00:19:46.748Z,99412.23
2022-12-12T00:22:39.492Z,99407.70
2022-12-12T00:25:32.246Z,99402.66
2022-12-12T00:28:25.082Z,99403.97
2022-12-12T00:31:17.853Z,99404.42
2022-12-12T00:34:10.682Z,99404.74
2022-12-12T00:37:03.408Z,99401.32
2022-12-12T00:39:56.479Z,99400.66
2022-12-12T00:42:49.589Z,99405.33
2022-12-12T00:45:42.656Z,99405.20
2022-12-12T00:48:35.791Z,99401.00
2022-12-12T00:51:29.381Z,99401.38
2022-12-12T00:54:22.323Z,99408.84
2022-12-12T00:57:15.246Z,99408.81
2022-12-12T01:00:09.453Z,99406.40
2022-12-12T01:03:02.562Z,99405.34
2022-12-12T01:05:55.318Z,99404.30
2022-12-12T01:08:48.001Z,99399.45
2022-12-12T01:11:40.653Z,99388.30
2022-12-12T01:14:33.411Z,99389.89
2022-12-12T01:17:26.124Z,99383.27
2022-12-12T01:20:21.145Z,99377.80
2022-12-12T01:23:13.918Z,99374.45
2022-12-12T01:26:07.286Z,99373.30
2022-12-12T01:29:00.024Z,99367.39
2022-12-12T01:31:52.754Z,99361.13
2022-12-12T01:34:45.499Z,99357.30
2022-12-12T01:37:38.269Z,99355.70
2022-12-12T01:40:32.124Z,99355.08
2022-12-12T01:43:25.633Z,99353.12
2022-12-12T01:46:39.506Z,99352.64
2022-12-12T01:49:34.257Z,99351.45
2022-12-12T01:52:32.030Z,99351.16
2022-12-12T01:55:25.577Z,99347.29
2022-12-12T01:58:18.710Z,99351.31
2022-12-12T02:01:11.929Z,99348.39
2022-12-12T02:04:05.075Z,99349.50
2022-12-12T02:06:57.838Z,99343.33
2022-12-12T02:09:51.305Z,99340.63
2022-12-12T02:12:44.028Z,99336.83
2022-12-12T02:15:39.791Z,99338.58
2022-12-12T02:18:35.557Z,99334.98
2022-12-12T02:21:30.444Z,99333.84
2022-12-12T02:24:40.783Z,99334.16
2022-12-12T02:27:52.034Z,99329.88
2022-12-12T02:30:46.415Z,99330.94
2022-12-12T02:33:39.971Z,99326.08
2022-12-12T02:36:36.133Z,99328.65
2022-12-12T02:39:31.350Z,99328.23
2022-12-12T02:42:27.157Z,99327.15
2022-12-12T02:45:24.231Z,99327.92
2022-12-12T02:48:18.667Z,99325.19
2022-12-12T02:51:12.047Z,99325.77
2022-12-12T02:54:06.575Z,99330.77
2022-12-12T02:56:59.997Z,99330.34
2022-12-12T02:59:55.667Z,99328.79
2022-12-12T03:03:15.925Z,99322.58
2022-12-12T03:06:46.160Z,99330.02
2022-12-12T03:09:44.857Z,99322.30
2022-12-12T03:12:41.506Z,99323.44
2022-12-12T03:15:39.896Z,99316.94
2022-12-12T03:18:34.595Z,99310.58
2022-12-12T03:21:28.754Z,99312.37
2022-12-12T03:24:24.855Z,99310.24
2022-12-12T03:27:19.830Z,99314.20
2022-12-12T03:30:14.301Z,99314.73
2022-12-12T03:33:11.210Z,99313.29
2022-12-12T03:36:04.883Z,99316.48
2022-12-12T03:38:59.965Z,99313.15
2022-12-12T03:41:56.331Z,99311.42
2022-12-12T03:44:51.166Z,99310.89
2022-12-12T03:47:47.308Z,99313.14
2022-12-12T03:50:42.487Z,99313.59
2022-12-12T03:53:37.417Z,99308.31
2022-12-12T03:56:31.747Z,99306.45
2022-12-12T03:59:27.544Z,99303.38
2022-12-12T04:02:22.975Z,99301.95
2022-12-12T04:05:17.105Z,99298.86
2022-12-12T04:08:11.388Z,99304.39
2022-12-12T04:11:24.846Z,99302.67
2022-12-12T04:14:25.065Z,99305.46
2022-12-12T04:17:19.315Z,99308.15
2022-12-12T04:20:35.817Z,99308.56
2022-12-12T04:23:31.236Z,99307.05
2022-12-12T04:26:41.805Z,99306.02
2022-12-12T04:29:41.865Z,99303.83
2022-12-12T04:32:35.662Z,99302.65
2022-12-12T04:35:30.293Z,99298.39
2022-12-12T04:38:24.743Z,99300.30
2022-12-12T04:41:17.795Z,99301.01
2022-12-12T04:44:11.379Z,99300.80
2022-12-12T04:47:04.056Z,99300.92
2022-12-12T04:49:56.749Z,99303.54
2022-12-12T04:52:49.473Z,99302.14
2022-12-12T04:55:43.470Z,99304.23
2022-12-12T04:58:36.281Z,99300.08
2022-12-12T05:01:33.637Z,99295.51
2022-12-12T05:04:29.257Z,99296.92
2022-12-12T05:07:24.731Z,99295.18
2022-12-12T05:10:18.559Z,99293.30
2022-12-12T05:13:18.260Z,99297.30
2022-12-12T05:16:14.247Z,99299.42
2022-12-12T05:19:07.030Z,99293.61
2022-12-12T05:21:59.749Z,99300.73
2022-12-12T05:24:52.468Z,99302.44
2022-12-12T05:27:45.198Z,99302.00
2022-12-12T05:30:38.024Z,99301.92
2022-12-12T05:33:31.106Z,99299.67
2022-12-12T05:36:24.438Z,99303.06
2022-12-12T05:39:17.485Z,99303.35
2022-12-12T05:42:10.190Z,99300.93
2022-12-12T05:45:02.995Z,99300.09
2022-12-12T05:47:55.750Z,99296.56
2022-12-12T05:50:48.464Z,99295.84
2022-12-12T05:53:43.154Z,99297.96
2022-12-12T05:56:36.170Z,99289.88
2022-12-12T05:59:29.743Z,99292.85
2022-12-12T06:02:22.481Z,99294.08
2022-12-12T06:05:15.592Z,99295.88
2022-12-12T06:08:10.089Z,99292.56
2022-12-12T06:11:02.995Z,99291.96
2022-12-12T06:13:55.723Z,99289.66
2022-12-12T06:16:48.475Z,99294.61
2022-12-12T06:19:41.242Z,99294.33
2022-12-12T06:22:35.125Z,99296.73
2022-12-12T06:25:27.855Z,99293.79
2022-12-12T06:28:21.042Z,99294.94
2022-12-12T06:31:13.895Z,99300.45
2022-12-12T06:34:06.731Z,99302.42
2022-12-12T06:36:59.482Z,99307.85
2022-12-12T06:39:52.410Z,99308.79
2022-12-12T06:42:48.548Z,99307.84
2022-12-12T06:45:42.251Z,99302.20
2022-12-12T06:48:35.725Z,99305.02
2022-12-12T06:51:29.361Z,99309.11
2022-12-12T06:54:22.158Z,99305.30
2022-12-12T06:57:14.986Z,99311.59
2022-12-12T07:00:09.903Z,99312.12
2022-12-12T07:03:02.786Z,99314.05
2022-12-12T07:05:56.065Z,99323.27
2022-12-12T07:08:49.272Z,99317.77
2022-12-12T07:11:42.569Z,99319.60
2022-12-12T07:14:35.379Z,99319.52
2022-12-12T07:17:28.442Z,99325.81
2022-12-12T07:20:21.342Z,99327.23
2022-12-12T07:23:14.831Z,99329.48
2022-12-12T07:26:09.366Z,99333.29
2022-12-12T07:29:04.450Z,99333.98
2022-12-12T07:31:57.237Z,99334.35
2022-12-12T07:34:49.990Z,99334.07
2022-12-12T07:37:43.074Z,99333.63
2022-12-12T07:40:36.015Z,99335.19
2022-12-12T07:43:28.765Z,99334.20
2022-12-12T07:46:22.720Z,99334.13
2022-12-12T07:49:15.577Z,99334.65
2022-12-12T07:52:08.896Z,99337.64
2022-12-12T07:55:02.571Z,99337.91
2022-12-12T07:57:55.399Z,99337.09
2022-12-12T08:00:48.537Z,99333.17
2022-12-12T08:03:42.284Z,99340.77
2022-12-12T08:06:35.490Z,99335.04
2022-12-12T08:09:28.325Z,99334.55
2022-12-12T08:12:21.465Z,99330.79
2022-12-12T08:15:14.948Z,99334.48
2022-12-12T08:18:08.013Z,99332.00
2022-12-12T08:21:00.876Z,99336.06
2022-12-12T08:23:53.698Z,99340.77
2022-12-12T08:26:46.479Z,99340.23
2022-12-12T08:29:39.681Z,99341.42
2022-12-12T08:32:32.419Z,99336.72
2022-12-12T08:35:25.304Z,99339.84
2022-12-12T08:38:18.063Z,99341.44
2022-12-12T08:41:11.220Z,99343.75
2022-12-12T08:44:04.038Z,99342.68
2022-12-12T08:46:56.884Z,99346.86
2022-12-12T08:49:50.330Z,99346.33
2022-12-12T08:52:43.247Z,99350.77
2022-12-12T08:55:36.155Z,99346.55
2022-12-12T08:58:29.367Z,99338.26
2022-12-12T09:01:23.080Z,99337.45
2022-12-12T09:04:15.846Z,99339.89
2022-12-12T09:07:09.007Z,99334.81
2022-12-12T09:10:02.263Z,99339.42
2022-12-12T09:12:55.059Z,99339.13
2022-12-12T09:15:50.954Z,99345.98
2022-12-12T09:18:49.093Z,99338.96
2022-12-12T09:21:42.424Z,99340.27
2022-12-12T09:24:35.640Z,99336.53
2022-12-12T09:27:28.815Z,99343.11
2022-12-12T09:30:22.229Z,99338.89
2022-12-12T09:33:15.150Z,99338.04
2022-12-12T09:36:09.072Z,99339.90
2022-12-12T09:39:01.878Z,99342.19
2022-12-12T09:41:54.623Z,99342.11
2022-12-12T09:44:47.517Z,99344.63
2022-12-12T09:47:43.382Z,99348.52
2022-12-12T09:50:38.450Z,99345.13
2022-12-12T09:53:31.249Z,99345.48
2022-12-12T09:56:26.480Z,99343.17
2022-12-12T09:59:20.985Z,99345.39
2022-12-12T10:02:27.129Z,99343.17
2022-12-12T10:05:32.346Z,99341.90
2022-12-12T10:08:28.563Z,99340.55
2022-12-12T10:11:44.447Z,99338.23
2022-12-12T10:14:38.242Z,99339.92
2022-12-12T10:17:32.733Z,99341.02
2022-12-12T10:20:26.802Z,99337.71
2022-12-12T10:23:22.891Z,99334.67
2022-12-12T10:26:18.432Z,99335.55
2022-12-12T10:29:14.671Z,99336.71
2022-12-12T10:32:11.953Z,99339.13
2022-12-12T10:35:18.776Z,99342.23
2022-12-12T10:38:22.291Z,99339.89
2022-12-12T10:41:18.168Z,99336.91
2022-12-12T10:44:20.881Z,99339.40
2022-12-12T10:47:13.727Z,99336.33
2022-12-12T10:50:25.527Z,99331.71
2022-12-12T10:53:18.299Z,99334.27
2022-12-12T10:56:12.289Z,99337.99
2022-12-12T10:59:05.410Z,99337.63
2022-12-12T11:02:16.195Z,99334.39
2022-12-12T11:05:18.301Z,99334.73
2022-12-12T11:08:23.237Z,99334.52
2022-12-12T11:11:22.809Z,99339.83
2022-12-12T11:14:29.570Z,99336.48
2022-12-12T11:17:26.203Z,99335.83
2022-12-12T11:20:20.353Z,99338.86
2022-12-12T11:23:19.417Z,99342.01
2022-12-12T11:26:17.182Z,99340.92
2022-12-12T11:29:13.100Z,99334.27
2022-12-12T11:32:07.257Z,99333.17
2022-12-12T11:35:01.391Z,99331.94
2022-12-12T11:37:55.782Z,99329.61
2022-12-12T11:40:48.532Z,99331.77
2022-12-12T11:43:53.511Z,99328.79
2022-12-12T11:46:46.516Z,99333.73
2022-12-12T11:49:41.124Z,99331.83
2022-12-12T11:52:34.581Z,99334.07
2022-12-12T11:55:30.971Z,99330.44
2022-12-12T11:58:24.177Z,99328.42
2022-12-12T12:01:20.643Z,99331.78
2022-12-12T12:04:27.035Z,99332.43
2022-12-12T12:07:47.776Z,99338.52
2022-12-12T12:10:55.515Z,99336.88
2022-12-12T12:13:57.011Z,99335.94
2022-12-12T12:16:53.809Z,99335.65
2022-12-12T12:19:49.034Z,99337.16
2022-12-12T12:22:47.563Z,99338.34
2022-12-12T12:25:44.241Z,99342.55
2022-12-12T12:28:48.050Z,99342.48
2022-12-12T12:31:45.290Z,99340.66
2022-12-12T12:34:41.079Z,99341.32
2022-12-12T12:37:40.901Z,99341.48
2022-12-12T12:40:43.029Z,99343.23
2022-12-12T12:43:45.212Z,99342.90
2022-12-12T12:46:42.344Z,99343.39
2022-12-12T12:49:36.209Z,99347.72
2022-12-12T12:52:33.572Z,99345.02
2022-12-12T12:55:28.255Z,99349.39
2022-12-12T12:58:24.092Z,99349.61
2022-12-12T13:01:18.233Z,99354.95
2022-12-12T13:04:16.180Z,99353.48
2022-12-12T13:07:10.838Z,99359.81
2022-12-12T13:10:08.418Z,99361.61
2022-12-12T13:13:02.696Z,99361.05
2022-12-12T13:15:56.158Z,99368.77
2022-12-12T13:18:51.192Z,99371.47
2022-12-12T13:21:45.423Z,99367.27
2022-12-12T13:24:42.428Z,99370.53
2022-12-12T13:27:36.647Z,99376.19
2022-12-12T13:30:32.412Z,99376.30
2022-12-12T13:33:37.158Z,99374.74
2022-12-12T13:36:32.799Z,99381.41
2022-12-12T13:39:31.055Z,99384.51
2022-12-12T13:42:23.930Z,99390.06
2022-12-12T13:45:38.873Z,99391.85
2022-12-12T13:48:46.256Z,99397.02
2022-12-12T13:51:41.309Z,99397.27
2022-12-12T13:54:50.306Z,99396.45
2022-12-12T13:58:08.204Z,99399.95
2022-12-12T14:01:43.232Z,99403.48
2022-12-12T14:04:37.067Z,99409.83
2022-12-12T14:07:29.953Z,99403.59
2022-12-12T14:10:27.739Z,99408.62
2022-12-12T14:13:27.010Z,99415.20
2022-12-12T14:16:33.282Z,99414.95
2022-12-12T14:19:33.086Z,99419.33
2022-12-12T14:22:52.179Z,99417.20
2022-12-12T14:25:45.451Z,99418.60
2022-12-12T14:28:38.263Z,99417.00
2022-12-12T14:31:35.089Z,99418.55
2022-12-12T14:34:30.211Z,99423.02
2022-12-12T14:37:41.217Z,99425.55
2022-12-12T14:40:34.607Z,99432.42
2022-12-12T14:43:28.832Z,99431.19
2022-12-12T14:46:22.481Z,99432.38
2022-12-12T14:49:17.258Z,99429.02
2022-12-12T14:52:10.193Z,99431.69
2022-12-12T14:55:05.337Z,99431.36
2022-12-12T14:57:58.191Z,99430.95
2022-12-12T15:00:52.259Z,99434.88
2022-12-12T15:03:46.771Z,99431.94
2022-12-12T15:06:40.534Z,99439.28
2022-12-12T15:09:33.744Z,99443.46
2022-12-12T15:12:28.303Z,99442.98
2022-12-12T15:15:27.711Z,99445.14
2022-12-12T15:18:20.598Z,99443.06
2022-12-12T15:21:13.399Z,99444.48
2022-12-12T15:24:06.711Z,99450.64
2022-12-12T15:27:00.039Z,99447.60
2022-12-12T15:29:53.433Z,99456.48
2022-12-12T15:32:47.596Z,99457.62
2022-12-12T15:35:40.572Z,99452.68
2022-12-12T15:38:33.434Z,99456.39
2022-12-12T15:41:26.270Z,99454.67
2022-12-12T15:44:20.939Z,99458.12
2022-12-12T15:47:13.885Z,99455.62
2022-12-12T15:50:11.188Z,99455.83
2022-12-12T15:53:08.098Z,99455.95
2022-12-12T15:56:05.531Z,99456.08
2022-12-12T15:59:14.373Z,99454.73
2022-12-12T16:02:27.714Z,99458.41
2022-12-12T16:05:26.688Z,99459.92
2022-12-12T16:08:40.723Z,99465.77
2022-12-12T16:11:43.084Z,99463.96
2022-12-12T16:14:40.574Z,99467.00
2022-12-12T16:17:34.121Z,99467.31
2022-12-12T16:20:30.570Z,99475.08
2022-12-12T16:23:31.706Z,99474.99
2022-12-12T16:26:24.517Z,99477.50
2022-12-12T16:29:17.330Z,99473.38
2022-12-12T16:32:12.948Z,99478.89
2022-12-12T16:35:05.934Z,99478.23
2022-12-12T16:37:59.200Z,99482.13
2022-12-12T16:40:52.773Z,99481.95
2022-12-12T16:43:46.251Z,99483.99
2022-12-12T16:46:39.095Z,99488.38
2022-12-12T16:49:32.042Z,99485.11
2022-12-12T16:52:24.996Z,99486.41
2022-12-12T16:55:20.686Z,99489.95
2022-12-12T16:58:13.500Z,99488.44
2022-12-12T17:01:06.668Z,99496.01
2022-12-12T17:03:59.677Z,99501.77
2022-12-12T17:06:53.002Z,99504.96
2022-12-12T17:09:46.117Z,99509.98
2022-12-12T17:12:40.313Z,99513.34
2022-12-12T17:15:33.869Z,99519.14
2022-12-12T17:18:27.265Z,99525.41
2022-12-12T17:21:23.036Z,99526.39
2022-12-12T17:24:16.234Z,99532.56
2022-12-12T17:27:09.000Z,99534.64
2022-12-12T17:30:01.804Z,99535.35
2022-12-12T17:36:06.239Z,99538.73
2022-12-12T17:38:59.159Z,99542.16
2022-12-12T17:41:52.003Z,99541.31
2022-12-12T17:44:44.877Z,99539.55
2022-12-12T17:47:37.882Z,99539.98
2022-12-12T17:50:30.834Z,99538.70
2022-12-12T17:53:23.695Z,99544.59
2022-12-12T17:56:18.229Z,99543.27
2022-12-12T17:59:11.662Z,99548.32
2022-12-12T18:02:06.059Z,99546.92
2022-12-12T18:04:59.004Z,99551.87
2022-12-12T18:07:52.009Z,99551.30
2022-12-12T18:10:44.913Z,99554.85
2022-12-12T18:13:38.908Z,99554.89
2022-12-12T18:16:33.239Z,99555.10
2022-12-12T18:19:27.641Z,99558.98
2022-12-12T18:22:20.423Z,99563.98
2022-12-12T18:25:13.659Z,99573.02
2022-12-12T18:28:06.523Z,99580.14
2022-12-12T18:30:59.594Z,99578.21
2022-12-12T18:33:53.112Z,99590.85
2022-12-12T18:36:45.969Z,99596.86
2022-12-12T18:39:38.917Z,99593.71
2022-12-12T18:42:31.820Z,99594.09
2022-12-12T18:45:25.204Z,99593.42
2022-12-12T18:48:18.119Z,99593.14
2022-12-12T18:51:11.779Z,99597.15
2022-12-12T18:54:09.421Z,99595.35
2022-12-12T18:57:05.862Z,99590.40
2022-12-12T18:59:58.668Z,99598.60
2022-12-12T19:02:51.427Z,99603.73
2022-12-12T19:05:44.680Z,99611.63
2022-12-12T19:08:37.470Z,99612.00
2022-12-12T19:11:30.224Z,99619.52
2022-12-12T19:14:22.978Z,99621.73
2022-12-12T19:17:18.322Z,99619.81
2022-12-12T19:20:14.226Z,99625.66
2022-12-12T19:23:07.442Z,99624.68
2022-12-12T19:26:05.164Z,99630.64
2022-12-12T19:28:59.824Z,99625.50
2022-12-12T19:31:58.386Z,99629.06
2022-12-12T19:34:51.526Z,99627.79
2022-12-12T19:37:44.318Z,99632.13
2022-12-12T19:40:37.171Z,99641.55
2022-12-12T19:43:32.949Z,99646.58
2022-12-12T19:46:26.845Z,99653.86
2022-12-12T19:49:19.731Z,99659.02
2022-12-12T19:52:14.416Z,99661.79
2022-12-12T19:55:08.755Z,99666.48
2022-12-12T19:58:04.094Z,99670.79
2022-12-12T20:00:57.010Z,99671.27
2022-12-12T20:03:52.948Z,99673.29
2022-12-12T20:06:46.565Z,99675.45
2022-12-12T20:09:39.386Z,99678.27
2022-12-12T20:12:32.888Z,99681.54
2022-12-12T20:15:26.183Z,99689.92
2022-12-12T20:18:18.997Z,99695.27
2022-12-12T20:21:29.831Z,99699.00
2022-12-12T20:24:25.613Z,99698.23
2022-12-12T20:27:18.450Z,99697.25
2022-12-12T20:30:13.713Z,99698.15
2022-12-12T20:33:06.801Z,99697.33
2022-12-12T20:36:02.994Z,99698.27
2022-12-12T20:38:59.959Z,99703.75
2022-12-12T20:41:53.859Z,99705.75
2022-12-12T20:44:46.721Z,99710.88
2022-12-12T20:47:39.533Z,99715.08
2022-12-12T20:50:32.301Z,99709.61
2022-12-12T20:53:25.087Z,99717.09
2022-12-12T20:56:21.721Z,99717.16
2022-12-12T20:59:17.266Z,99713.05
2022-12-12T21:02:11.209Z,99711.73
2022-12-12T21:05:05.782Z,99712.27
2022-12-12T21:07:59.049Z,99716.67
2022-12-12T21:10:52.065Z,99719.79
2022-12-12T21:13:44.814Z,99716.95
2022-12-12T21:16:40.762Z,99721.91
2022-12-12T21:19:33.738Z,99718.96
2022-12-12T21:22:26.477Z,99722.20
2022-12-12T21:25:21.683Z,99718.27
2022-12-12T21:28:15.015Z,99721.98
2022-12-12T21:31:09.826Z,99729.02
2022-12-12T21:34:02.595Z,99727.44
2022-12-12T21:36:57.046Z,99729.79
2022-12-12T21:39:51.309Z,99742.00
2022-12-12T21:42:44.070Z,99748.17
2022-12-12T21:45:39.404Z,99750.95
2022-12-12T21:48:33.692Z,99748.83
2022-12-12T21:51:26.485Z,99751.02
2022-12-12T21:54:19.233Z,99757.36
2022-12-12T21:57:12.123Z,99758.48
2022-12-12T22:00:05.534Z,99757.50
2022-12-12T22:03:05.361Z,99759.95
2022-12-12T22:05:58.597Z,99760.71
2022-12-12T22:08:51.117Z,99762.67
2022-12-12T22:11:49.851Z,99767.02
2022-12-12T22:14:44.559Z,99766.52
2022-12-12T22:17:37.238Z,99764.60
2022-12-12T22:20:29.836Z,99767.17
2022-12-12T22:23:22.907Z,99769.87
2022-12-12T22:26:21.001Z,99775.40
2022-12-12T22:29:15.137Z,99778.35
2022-12-12T22:32:07.937Z,99777.89
2022-12-12T22:35:01.476Z,99780.06
2022-12-12T22:37:55.324Z,99779.33
2022-12-12T22:40:56.978Z,99784.80
2022-12-12T22:43:49.549Z,99786.96
2022-12-12T22:46:46.029Z,99786.84
2022-12-12T22:49:38.793Z,99788.18
2022-12-12T22:52:31.460Z,99794.23
2022-12-12T22:55:24.044Z,99794.69
2022-12-12T22:58:17.247Z,99793.14
2022-12-12T23:01:11.545Z,99796.40
2022-12-12T23:04:04.413Z,99796.65
2022-12-12T23:07:00.199Z,99795.42
2022-12-12T23:09:57.042Z,99798.85
2022-12-12T23:12:49.825Z,99807.56
2022-12-12T23:15:42.703Z,99806.20
2022-12-12T23:18:35.905Z,99809.64
2022-12-12T23:21:30.071Z,99803.02
2022-12-12T23:24:22.869Z,99805.76
2022-12-12T23:27:15.662Z,99809.39
2022-12-12T23:30:10.862Z,99810.41
2022-12-12T23:33:03.655Z,99811.92
2022-12-12T23:35:56.449Z,99819.45
2022-12-12T23:38:49.191Z,99822.56
2022-12-12T23:41:42.124Z,99828.85
2022-12-12T23:44:35.630Z,99827.52
2022-12-12T23:47:28.404Z,99834.77
2022-12-12T23:50:21.230Z,99829.59
2022-12-12T23:53:13.959Z,99827.04
2022-12-12T23:56:08.350Z,99828.30
2022-12-12T23:59:01.615Z,99827.55
